createdAt,value
2023-01-20T00:02:00.940Z,1.60
2023-01-20T00:06:01.955Z,1.70
2023-01-20T00:10:03.283Z,1.30
2023-01-20T00:14:04.288Z,1.50
2023-01-20T00:18:05.392Z,1.60
2023-01-20T00:22:06.332Z,1.50
2023-01-20T00:26:10.521Z,1.40
2023-01-20T00:30:12.389Z,1.40
2023-01-20T00:34:13.455Z,1.70
2023-01-20T00:38:15.068Z,0.80
2023-01-20T00:42:17.031Z,1.00
2023-01-20T00:46:18.020Z,0.70
2023-01-20T00:50:18.895Z,1.50
2023-01-20T00:54:20.212Z,1.40
2023-01-20T00:58:21.313Z,0.20
2023-01-20T01:02:22.498Z,0.70
2023-01-20T01:06:23.607Z,1.20
2023-01-20T01:10:24.694Z,1.20
2023-01-20T01:14:25.763Z,0.70
2023-01-20T01:18:27.009Z,0.40
2023-01-20T01:22:28.073Z,1.00
2023-01-20T01:26:29.599Z,1.10
2023-01-20T01:30:30.743Z,0.80
2023-01-20T01:34:32.136Z,0.60
2023-01-20T01:38:33.571Z,-0.10
2023-01-20T01:42:34.857Z,-0.90
2023-01-20T01:46:37.125Z,-0.30
2023-01-20T01:50:47.610Z,0.70
2023-01-20T01:54:50.136Z,0.40
2023-01-20T01:58:54.429Z,0.30
2023-01-20T02:02:56.407Z,0.40
2023-01-20T02:07:03.942Z,0.40
2023-01-20T02:11:05.087Z,0.30
2023-01-20T02:15:06.998Z,0.10
2023-01-20T02:19:34.574Z,-0.10
2023-01-20T02:23:51.490Z,-0.60
2023-01-20T02:28:20.243Z,-0.40
2023-01-20T02:32:33.847Z,-0.10
2023-01-20T02:37:01.203Z,0.10
2023-01-20T02:41:15.324Z,0.00
2023-01-20T02:45:25.753Z,-0.10
2023-01-20T02:49:36.302Z,-0.50
2023-01-20T02:53:44.011Z,-0.20
2023-01-20T02:57:51.638Z,-0.80
2023-01-20T03:02:08.554Z,-0.70
2023-01-20T03:06:19.395Z,-0.40
2023-01-20T03:10:23.665Z,-0.70
2023-01-20T03:14:24.800Z,-0.40
2023-01-20T03:18:28.319Z,-0.90
2023-01-20T03:22:30.283Z,-0.30
2023-01-20T03:26:31.267Z,-0.80
2023-01-20T03:30:32.491Z,-1.10
2023-01-20T03:34:36.593Z,-0.50
2023-01-20T03:38:37.696Z,0.10
2023-01-20T03:42:45.333Z,0.30
2023-01-20T03:47:02.214Z,0.10
2023-01-20T03:51:21.992Z,0.40
2023-01-20T03:55:29.776Z,0.30
2023-01-20T03:59:34.096Z,0.10
2023-01-20T04:03:38.840Z,-0.80
2023-01-20T04:07:42.454Z,-0.60
2023-01-20T04:11:43.686Z,-0.10
2023-01-20T04:15:45.818Z,0.20
2023-01-20T04:19:47.842Z,0.00
2023-01-20T04:23:58.756Z,-0.20
2023-01-20T04:27:59.752Z,0.20
2023-01-20T04:32:02.006Z,-0.80
2023-01-20T04:36:03.453Z,0.00
2023-01-20T04:40:05.546Z,0.80
2023-01-20T04:44:06.712Z,0.90
2023-01-20T04:48:08.433Z,1.30
2023-01-20T04:52:09.529Z,1.30
2023-01-20T04:56:12.341Z,0.90
2023-01-20T05:00:16.040Z,1.50
2023-01-20T05:04:17.182Z,1.80
2023-01-20T05:08:18.132Z,2.00
2023-01-20T05:12:19.256Z,2.20
2023-01-20T05:16:22.248Z,2.40
2023-01-20T05:20:23.282Z,2.30
2023-01-20T05:24:24.299Z,1.90
2023-01-20T05:28:25.455Z,1.40
2023-01-20T05:32:26.369Z,2.00
2023-01-20T05:36:27.611Z,2.80
2023-01-20T05:40:28.651Z,2.60
2023-01-20T05:44:29.748Z,2.40
2023-01-20T05:48:31.119Z,2.10
2023-01-20T05:52:32.206Z,2.40
2023-01-20T05:56:34.406Z,2.50
2023-01-20T06:00:36.001Z,3.20
2023-01-20T06:04:36.923Z,3.60
2023-01-20T06:08:37.884Z,3.60
2023-01-20T06:12:38.849Z,3.40
2023-01-20T06:16:39.893Z,3.40
2023-01-20T06:20:40.864Z,2.80
2023-01-20T06:24:41.872Z,3.30
2023-01-20T06:28:42.796Z,3.70
2023-01-20T06:32:46.345Z,3.10
2023-01-20T06:36:47.297Z,3.60
2023-01-20T06:40:48.430Z,3.60
2023-01-20T06:44:49.477Z,4.00
2023-01-20T06:48:50.428Z,4.00
2023-01-20T06:52:53.005Z,4.10
2023-01-20T06:56:53.939Z,3.50
2023-01-20T07:00:56.436Z,4.10
2023-01-20T07:04:57.665Z,3.80
2023-01-20T07:08:59.919Z,3.70
2023-01-20T07:13:01.134Z,3.50
2023-01-20T07:17:02.178Z,3.40
2023-01-20T07:21:04.332Z,3.20
2023-01-20T07:25:05.785Z,3.20
2023-01-20T07:29:06.889Z,3.40
2023-01-20T07:33:07.859Z,3.60
2023-01-20T07:37:08.920Z,3.30
2023-01-20T07:41:12.632Z,3.80
2023-01-20T07:45:14.289Z,3.50
2023-01-20T07:49:15.304Z,3.80
2023-01-20T07:53:16.416Z,3.90
2023-01-20T07:57:17.501Z,3.40
2023-01-20T08:01:25.020Z,3.90
2023-01-20T08:05:26.132Z,3.70
2023-01-20T08:09:27.458Z,4.20
2023-01-20T08:13:29.350Z,3.50
2023-01-20T08:17:30.751Z,3.20
2023-01-20T08:21:32.862Z,2.50
2023-01-20T08:25:33.974Z,2.60
2023-01-20T08:29:36.943Z,3.40
2023-01-20T08:33:38.883Z,3.50
2023-01-20T08:37:39.842Z,3.70
2023-01-20T08:41:42.701Z,3.70
2023-01-20T08:45:43.723Z,3.50
2023-01-20T08:49:44.883Z,3.80
2023-01-20T08:53:46.015Z,3.60
2023-01-20T08:57:46.979Z,3.50
2023-01-20T09:01:48.318Z,3.50
2023-01-20T09:05:50.049Z,3.50
2023-01-20T09:09:51.249Z,4.10
2023-01-20T09:13:53.958Z,3.50
2023-01-20T09:17:55.191Z,3.40
2023-01-20T09:21:56.879Z,3.80
2023-01-20T09:26:01.961Z,4.70
2023-01-20T09:30:04.181Z,5.10
2023-01-20T09:34:05.762Z,5.40
2023-01-20T09:38:25.746Z,5.30
2023-01-20T09:43:10.177Z,5.20
2023-01-20T09:47:29.725Z,4.70
2023-01-20T09:51:58.063Z,5.00
2023-01-20T09:56:08.380Z,3.00
2023-01-20T10:00:16.724Z,3.50
2023-01-20T10:04:29.117Z,4.00
2023-01-20T10:08:36.647Z,4.10
2023-01-20T10:12:41.528Z,4.50
2023-01-20T10:17:04.425Z,4.90
2023-01-20T10:21:15.213Z,3.90
2023-01-20T10:25:32.242Z,4.60
2023-01-20T10:29:40.132Z,5.20
2023-01-20T10:33:44.429Z,5.00
2023-01-20T10:37:45.657Z,4.90
2023-01-20T10:41:50.464Z,4.90
2023-01-20T10:46:04.799Z,4.70
2023-01-20T10:50:27.618Z,4.40
2023-01-20T10:54:50.762Z,4.10
2023-01-20T10:58:51.998Z,2.20
2023-01-20T11:02:53.700Z,3.40
2023-01-20T11:06:58.303Z,4.00
2023-01-20T11:11:03.462Z,3.80
2023-01-20T11:15:08.698Z,4.30
2023-01-20T11:19:11.384Z,4.50
2023-01-20T11:23:19.086Z,3.80
2023-01-20T11:27:23.237Z,4.30
2023-01-20T11:31:49.411Z,4.80
2023-01-20T11:36:05.148Z,4.30
2023-01-20T11:40:19.261Z,3.70
2023-01-20T11:44:20.526Z,3.20
2023-01-20T11:48:22.867Z,3.60
2023-01-20T11:52:24.067Z,4.10
2023-01-20T11:56:25.801Z,5.00
2023-01-20T12:00:43.302Z,3.20
2023-01-20T12:04:52.204Z,4.50
2023-01-20T12:09:02.828Z,5.00
2023-01-20T12:13:22.592Z,4.90
2023-01-20T12:17:45.767Z,3.50
2023-01-20T12:21:50.585Z,4.10
2023-01-20T12:25:57.032Z,4.50
2023-01-20T12:30:08.072Z,3.90
2023-01-20T12:34:15.066Z,4.00
2023-01-20T12:38:19.228Z,3.00
2023-01-20T12:42:24.027Z,3.30
2023-01-20T12:46:40.782Z,3.80
2023-01-20T12:50:57.142Z,3.70
2023-01-20T12:55:07.812Z,3.40
2023-01-20T12:59:27.980Z,4.40
2023-01-20T13:04:01.730Z,4.00
2023-01-20T13:08:15.769Z,3.90
2023-01-20T13:12:30.058Z,3.60
2023-01-20T13:16:42.704Z,3.10
2023-01-20T13:20:45.912Z,3.20
2023-01-20T13:24:52.277Z,3.50
2023-01-20T13:28:55.420Z,3.40
2023-01-20T13:33:07.831Z,2.90
2023-01-20T13:37:24.611Z,3.40
2023-01-20T13:41:48.611Z,3.90
2023-01-20T13:46:09.226Z,4.60
2023-01-20T13:50:23.473Z,4.70
2023-01-20T13:54:30.169Z,4.80
2023-01-20T13:58:33.226Z,4.10
2023-01-20T14:02:36.885Z,5.00
2023-01-20T14:06:47.061Z,4.80
2023-01-20T14:10:48.351Z,4.20
2023-01-20T14:14:49.920Z,3.80
2023-01-20T14:18:54.584Z,4.10
2023-01-20T14:22:58.003Z,4.50
2023-01-20T14:27:19.203Z,4.30
2023-01-20T14:31:23.867Z,4.70
2023-01-20T14:35:31.563Z,4.40
2023-01-20T14:39:33.123Z,5.00
2023-01-20T14:43:34.767Z,5.20
2023-01-20T14:47:36.931Z,2.40
2023-01-20T14:51:38.009Z,3.90
2023-01-20T14:55:40.169Z,3.40
2023-01-20T14:59:41.545Z,4.20
2023-01-20T15:03:42.671Z,4.60
2023-01-20T15:07:43.622Z,4.20
2023-01-20T15:11:45.634Z,4.30
2023-01-20T15:15:46.695Z,4.80
2023-01-20T15:19:47.720Z,4.40
2023-01-20T15:23:50.876Z,4.40
2023-01-20T15:27:53.632Z,4.60
2023-01-20T15:31:56.846Z,4.50
2023-01-20T15:35:59.439Z,4.50
2023-01-20T15:40:00.885Z,4.20
2023-01-20T15:44:01.849Z,4.40
2023-01-20T15:48:06.853Z,3.90
2023-01-20T15:52:10.204Z,3.80
2023-01-20T15:56:25.940Z,4.20
2023-01-20T16:00:28.767Z,4.20
2023-01-20T16:04:30.943Z,4.30
2023-01-20T16:08:36.013Z,4.30
2023-01-20T16:12:36.964Z,4.10
2023-01-20T16:16:38.186Z,2.80
2023-01-20T16:20:39.440Z,2.60
2023-01-20T16:24:41.642Z,3.10
2023-01-20T16:28:42.736Z,3.40
2023-01-20T16:32:47.013Z,2.40
2023-01-20T16:36:48.342Z,2.40
2023-01-20T16:40:58.829Z,3.20
2023-01-20T16:45:00.007Z,3.80
2023-01-20T16:49:02.396Z,4.00
2023-01-20T16:53:03.917Z,4.50
2023-01-20T16:57:05.016Z,4.20
2023-01-20T17:01:10.685Z,4.10
2023-01-20T17:05:11.754Z,4.00
2023-01-20T17:09:13.518Z,4.10
2023-01-20T17:13:14.539Z,4.40
2023-01-20T17:17:15.509Z,3.30
2023-01-20T17:21:21.895Z,4.30
2023-01-20T17:25:23.639Z,4.40
2023-01-20T17:29:24.876Z,3.90
2023-01-20T17:33:27.810Z,4.10
2023-01-20T17:37:29.012Z,4.70
2023-01-20T17:41:30.664Z,4.80
2023-01-20T17:45:31.961Z,5.00
2023-01-20T17:49:33.573Z,4.80
2023-01-20T17:53:34.592Z,4.60
2023-01-20T17:57:35.655Z,3.50
2023-01-20T18:01:37.008Z,3.70
2023-01-20T18:05:38.047Z,2.50
2023-01-20T18:09:39.891Z,3.30
2023-01-20T18:13:45.010Z,3.30
2023-01-20T18:17:46.380Z,2.80
2023-01-20T18:21:47.591Z,3.20
2023-01-20T18:25:53.568Z,2.80
2023-01-20T18:29:54.608Z,2.60
2023-01-20T18:33:58.264Z,3.20
2023-01-20T18:38:01.296Z,3.60
2023-01-20T18:42:02.589Z,2.60
2023-01-20T18:46:04.506Z,2.90
2023-01-20T18:50:06.939Z,2.80
2023-01-20T18:54:11.073Z,3.10
2023-01-20T18:58:14.013Z,3.00
2023-01-20T19:02:15.211Z,3.50
2023-01-20T19:06:21.993Z,3.30
2023-01-20T19:10:22.976Z,2.90
2023-01-20T19:14:24.161Z,2.20
2023-01-20T19:18:25.387Z,2.70
2023-01-20T19:22:26.503Z,1.70
2023-01-20T19:26:28.147Z,1.80
2023-01-20T19:30:29.221Z,1.60
2023-01-20T19:34:30.191Z,2.50
2023-01-20T19:38:33.306Z,2.40
2023-01-20T19:42:34.329Z,2.40
2023-01-20T19:46:38.022Z,2.10
2023-01-20T19:50:39.475Z,2.30
2023-01-20T19:54:40.964Z,2.80
2023-01-20T19:58:43.034Z,2.10
2023-01-20T20:02:44.402Z,2.70
2023-01-20T20:06:48.461Z,2.20
2023-01-20T20:10:50.477Z,2.80
2023-01-20T20:14:51.431Z,2.60
2023-01-20T20:18:54.550Z,2.40
2023-01-20T20:22:55.520Z,2.30
2023-01-20T20:26:57.518Z,1.80
2023-01-20T20:31:02.885Z,2.00
2023-01-20T20:35:05.669Z,2.20
2023-01-20T20:39:07.545Z,1.70
2023-01-20T20:43:08.705Z,2.10
2023-01-20T20:47:09.825Z,2.80
2023-01-20T20:51:13.758Z,2.00
2023-01-20T20:55:14.807Z,2.50
2023-01-20T20:59:15.904Z,1.80
2023-01-20T21:03:17.367Z,2.00
2023-01-20T21:07:18.893Z,1.90
2023-01-20T21:11:20.638Z,2.80
2023-01-20T21:15:24.924Z,2.60
2023-01-20T21:19:25.977Z,2.20
2023-01-20T21:23:28.699Z,1.90
2023-01-20T21:27:32.320Z,2.30
2023-01-20T21:31:36.931Z,3.00
2023-01-20T21:35:38.383Z,2.30
2023-01-20T21:39:39.600Z,3.00
2023-01-20T21:44:01.591Z,2.80
2023-01-20T21:48:04.906Z,2.80
2023-01-20T21:52:26.236Z,2.10
2023-01-20T21:56:27.255Z,2.20
2023-01-20T22:00:29.246Z,2.10
2023-01-20T22:04:31.701Z,2.70
2023-01-20T22:08:32.841Z,2.90
2023-01-20T22:12:34.978Z,2.30
2023-01-20T22:16:36.602Z,2.40
2023-01-20T22:20:38.949Z,2.60
2023-01-20T22:24:39.931Z,2.50
2023-01-20T22:28:41.115Z,2.70
2023-01-20T22:32:42.215Z,1.90
2023-01-20T22:36:44.415Z,1.90
2023-01-20T22:40:45.486Z,2.30
2023-01-20T22:44:46.722Z,2.60
2023-01-20T22:48:48.219Z,2.60
2023-01-20T22:52:49.622Z,1.80
2023-01-20T22:56:50.637Z,1.80
2023-01-20T23:00:51.853Z,1.70
2023-01-20T23:04:52.854Z,2.70
2023-01-20T23:08:54.358Z,3.60
2023-01-20T23:12:55.319Z,1.90
2023-01-20T23:16:56.395Z,2.10
2023-01-20T23:20:57.949Z,2.10
2023-01-20T23:24:58.912Z,2.40
2023-01-20T23:29:00.026Z,2.40
2023-01-20T23:33:01.018Z,1.70
2023-01-20T23:37:02.066Z,1.80
2023-01-20T23:41:03.333Z,2.00
2023-01-20T23:45:05.162Z,2.70
2023-01-20T23:49:06.409Z,3.20
2023-01-20T23:53:07.364Z,2.80
2023-01-20T23:57:08.501Z,2.20
